Platinum, AK

5:53 AM AKST on December 11, 2016 (GMT -0900)
Cape Newenham LRRS | | Change Station

Elev 538 ft 58.65 °N, 162.06 °W | Updated 58 minutes ago

Mostly Cloudy
Mostly Cloudy
37 °F
Feels Like 28 °F
N
14
Wind Variable Wind from SE
Gusts 25 mph

Today
High -- | Low -- °F
--% Chance of Precip.
Yesterday
High -- | Low -- °F
Precip. -- in
Pressure 30.32 in
Visibility 10.0 miles
Clouds Mostly Cloudy 11000 ft
Windchill 28 °F
Dew Point 24 °F
Humidity 60%
Rainfall 0.00 in
Snow Depth Not available.
10:29 AM 4:53 PM
Waxing Gibbous, 92% visible
METAR PAEH 111355Z AUTO 14012G22KT 10SM BKN110 03/M04 A3028 RMK AO2 WSHFT 1339 SLP265 T00271043
Pressure 30.32 in
Visibility 10.0 miles
Clouds Mostly Cloudy 11000 ft
Windchill 28 °F
Dew Point 24 °F
Humidity 60%
Rainfall 0.00 in
Snow Depth Not available.
10:29 AM 4:53 PM
Waxing Gibbous, 92% visible
METAR PAEH 111355Z AUTO 14012G22KT 10SM BKN110 03/M04 A3028 RMK AO2 WSHFT 1339 SLP265 T00271043

10-Day Weather Forecast

Almanac

Astronomy

Dec. 11, 2016 Rise Set
Actual Time
Civil Twilight
Nautical Twilight
Astronomical Twilight
Moon
Length of Visible Light
Length of Day
Tomorrow will be .
, % of the Moon is Illuminated

Today's Extremes

State Highs State Lows

Community

WunderPhotos

Upload Photos

1,956,719 photos uploaded!

WunderBlog® & News

Nearby

Air Quality

  Air Quality AQ Index Pollutant
Not available.

Snow Depth

Station Depth Elevation

Earthquake Activity

City Distance Mag. Time & Date
Minimum magnitude displayed is 2.5.

Coastal Water Temperatures

Place Temperature

Stations

Nearby Weather Stations

Station Location Temp. Windchill Dew Point Humidity Wind Precip. Elev Updated Type
                   

Watches & Warnings

There are currently no watches in effect.